createdAt,value
2022-08-11T00:01:24.482Z,15.65
2022-08-11T00:03:54.422Z,15.58
2022-08-11T00:06:27.278Z,15.47
2022-08-11T00:08:54.888Z,15.41
2022-08-11T00:11:22.181Z,15.42
2022-08-11T00:13:53.744Z,15.60
2022-08-11T00:16:23.776Z,15.67
2022-08-11T00:18:55.889Z,15.70
2022-08-11T00:22:02.030Z,15.71
2022-08-11T00:24:11.571Z,15.61
2022-08-11T00:26:38.006Z,15.34
2022-08-11T00:29:12.293Z,15.17
2022-08-11T00:31:45.679Z,15.12
2022-08-11T00:34:13.039Z,15.03
2022-08-11T00:36:49.298Z,15.07
2022-08-11T00:39:17.727Z,15.10
2022-08-11T00:42:02.167Z,15.04
2022-08-11T00:44:35.890Z,15.21
2022-08-11T00:47:28.831Z,15.21
2022-08-11T00:50:18.394Z,15.20
2022-08-11T00:53:10.051Z,15.17
2022-08-11T00:56:13.677Z,15.15
2022-08-11T00:59:02.920Z,15.18
2022-08-11T01:01:41.520Z,15.09
2022-08-11T01:04:32.497Z,14.98
2022-08-11T01:06:58.934Z,14.95
2022-08-11T01:09:53.411Z,15.00
2022-08-11T01:12:45.708Z,15.05
2022-08-11T01:15:25.044Z,15.03
2022-08-11T01:18:13.383Z,14.98
2022-08-11T01:21:17.242Z,14.89
2022-08-11T01:24:07.873Z,14.82
2022-08-11T01:27:19.426Z,14.78
2022-08-11T01:30:07.569Z,14.84
2022-08-11T01:33:01.135Z,14.59
2022-08-11T01:36:02.719Z,14.44
2022-08-11T01:39:26.421Z,14.61
2022-08-11T01:42:42.384Z,14.61
2022-08-11T01:45:17.983Z,14.73
2022-08-11T01:48:00.745Z,14.69
2022-08-11T01:50:46.501Z,14.56
2022-08-11T01:53:26.990Z,14.51
2022-08-11T01:56:21.229Z,14.41
2022-08-11T01:59:08.947Z,14.38
2022-08-11T02:02:02.885Z,14.19
2022-08-11T02:04:47.069Z,14.25
2022-08-11T02:07:27.618Z,14.24
2022-08-11T02:10:36.490Z,14.10
2022-08-11T02:13:36.667Z,14.01
2022-08-11T02:16:16.477Z,13.92
2022-08-11T02:19:08.756Z,13.87
2022-08-11T02:22:10.816Z,14.04
2022-08-11T02:25:02.640Z,14.05
2022-08-11T02:27:42.548Z,14.16
2022-08-11T02:30:13.989Z,14.06
2022-08-11T02:33:33.998Z,13.95
2022-08-11T02:36:33.074Z,13.83
2022-08-11T02:39:09.489Z,13.72
2022-08-11T02:42:35.552Z,13.58
2022-08-11T02:45:11.794Z,13.59
2022-08-11T02:48:21.834Z,13.60
2022-08-11T02:51:13.978Z,13.76
2022-08-11T02:54:14.572Z,13.82
2022-08-11T02:56:52.157Z,13.79
2022-08-11T02:59:53.176Z,13.67
2022-08-11T03:02:31.305Z,13.41
2022-08-11T03:04:57.581Z,13.39
2022-08-11T03:08:01.599Z,13.44
2022-08-11T03:10:42.686Z,13.42
2022-08-11T03:13:30.766Z,13.33
2022-08-11T03:16:40.591Z,13.32
2022-08-11T03:19:11.884Z,13.39
2022-08-11T03:22:43.057Z,13.40
2022-08-11T03:25:31.383Z,13.44
2022-08-11T03:28:28.514Z,13.24
2022-08-11T03:31:24.679Z,13.27
2022-08-11T03:34:07.316Z,13.20
2022-08-11T03:37:14.832Z,13.14
2022-08-11T03:40:03.304Z,13.12
2022-08-11T03:42:46.054Z,13.15
2022-08-11T03:45:24.939Z,13.41
2022-08-11T03:48:08.242Z,13.23
2022-08-11T03:50:55.363Z,13.28
2022-08-11T03:54:03.646Z,13.22
2022-08-11T03:56:54.833Z,13.27
2022-08-11T03:59:49.186Z,13.34
2022-08-11T04:02:54.754Z,13.21
2022-08-11T04:05:46.565Z,13.05
2022-08-11T04:08:34.377Z,13.00
2022-08-11T04:11:31.728Z,13.02
2022-08-11T04:14:37.845Z,13.08
2022-08-11T04:17:42.658Z,13.05
2022-08-11T04:20:33.582Z,13.11
2022-08-11T04:24:33.279Z,13.14
2022-08-11T04:26:34.229Z,13.19
2022-08-11T04:29:25.623Z,13.23
2022-08-11T04:32:44.335Z,13.31
2022-08-11T04:35:50.209Z,13.51
2022-08-11T04:38:36.621Z,13.46
2022-08-11T04:41:21.865Z,13.51
2022-08-11T04:44:07.232Z,13.60
2022-08-11T04:47:10.381Z,13.76
2022-08-11T04:50:34.123Z,14.00
2022-08-11T04:53:43.749Z,13.84
2022-08-11T04:56:55.578Z,13.97
2022-08-11T04:59:56.401Z,14.00
2022-08-11T05:03:00.438Z,14.16
2022-08-11T05:05:57.605Z,14.40
2022-08-11T05:08:42.913Z,14.68
2022-08-11T05:11:21.517Z,14.99
2022-08-11T05:14:09.598Z,15.29
2022-08-11T05:17:12.069Z,15.67
2022-08-11T05:19:57.284Z,15.81
2022-08-11T05:22:48.246Z,15.95
2022-08-11T05:26:44.926Z,16.13
2022-08-11T05:29:19.251Z,16.32
2022-08-11T05:32:13.843Z,16.23
2022-08-11T05:34:55.257Z,16.29
2022-08-11T05:37:27.212Z,16.53
2022-08-11T05:40:19.134Z,16.58
2022-08-11T05:43:15.867Z,16.84
2022-08-11T05:46:03.727Z,17.03
2022-08-11T05:48:55.649Z,17.24
2022-08-11T05:51:55.337Z,17.34
2022-08-11T05:54:41.852Z,17.40
2022-08-11T05:57:09.550Z,17.46
2022-08-11T05:59:36.667Z,17.42
2022-08-11T06:02:05.752Z,17.46
2022-08-11T06:04:34.315Z,17.52
2022-08-11T06:07:05.570Z,17.59
2022-08-11T06:09:34.653Z,17.79
2022-08-11T06:12:05.477Z,17.95
2022-08-11T06:14:33.864Z,18.14
2022-08-11T06:17:02.842Z,18.29
2022-08-11T06:20:08.060Z,18.60
2022-08-11T06:22:35.203Z,18.68
2022-08-11T06:25:04.659Z,18.78
2022-08-11T06:27:35.284Z,18.94
2022-08-11T06:30:03.298Z,19.25
2022-08-11T06:32:35.805Z,19.40
2022-08-11T06:35:19.452Z,19.49
2022-08-11T06:38:04.497Z,19.68
2022-08-11T06:40:41.881Z,19.63
2022-08-11T06:43:19.139Z,19.89
2022-08-11T06:46:03.062Z,20.04
2022-08-11T06:48:33.476Z,20.06
2022-08-11T06:51:12.978Z,20.17
2022-08-11T06:54:04.342Z,20.20
2022-08-11T06:57:12.405Z,20.40
2022-08-11T07:00:01.672Z,20.57
2022-08-11T07:02:38.350Z,20.54
2022-08-11T07:05:21.016Z,20.61
2022-08-11T07:08:34.040Z,20.85
2022-08-11T07:11:49.219Z,20.81
2022-08-11T07:14:41.669Z,20.87
2022-08-11T07:17:13.974Z,21.22
2022-08-11T07:20:04.919Z,21.29
2022-08-11T07:22:51.421Z,21.61
2022-08-11T07:25:37.311Z,21.74
2022-08-11T07:28:40.297Z,21.59
2022-08-11T07:31:31.535Z,21.58
2022-08-11T07:34:21.412Z,21.74
2022-08-11T07:36:54.581Z,21.85
2022-08-11T07:39:35.895Z,22.25
2022-08-11T07:42:08.093Z,22.15
2022-08-11T07:44:55.422Z,22.30
2022-08-11T07:47:42.443Z,22.59
2022-08-11T07:50:28.637Z,22.59
2022-08-11T07:53:02.596Z,22.67
2022-08-11T07:55:51.837Z,22.72
2022-08-11T07:58:45.179Z,22.45
2022-08-11T08:01:36.677Z,22.63
2022-08-11T08:04:24.104Z,22.56
2022-08-11T08:07:09.770Z,22.79
2022-08-11T08:09:55.153Z,22.91
2022-08-11T08:12:43.477Z,23.18
2022-08-11T08:15:30.135Z,23.39
2022-08-11T08:18:10.070Z,23.27
2022-08-11T08:20:50.755Z,23.46
2022-08-11T08:23:32.783Z,23.61
2022-08-11T08:26:01.381Z,23.73
2022-08-11T08:28:32.300Z,23.89
2022-08-11T08:30:59.645Z,23.97
2022-08-11T08:33:31.108Z,24.09
2022-08-11T08:36:12.875Z,24.05
2022-08-11T08:38:39.344Z,24.01
2022-08-11T08:41:06.425Z,24.22
2022-08-11T08:43:48.622Z,24.45
2022-08-11T08:46:19.284Z,24.66
2022-08-11T08:48:47.394Z,24.59
2022-08-11T08:52:01.900Z,24.43
2022-08-11T08:54:33.924Z,24.64
2022-08-11T08:57:04.788Z,24.80
2022-08-11T08:59:47.971Z,24.94
2022-08-11T09:02:33.848Z,25.08
2022-08-11T09:05:02.328Z,24.92
2022-08-11T09:07:34.008Z,25.15
2022-08-11T09:10:07.747Z,25.40
2022-08-11T09:12:38.555Z,25.21
2022-08-11T09:15:08.935Z,25.12
2022-08-11T09:17:48.144Z,25.30
2022-08-11T09:20:25.798Z,25.54
2022-08-11T09:26:22.070Z,24.77
2022-08-11T09:28:58.933Z,25.00
2022-08-11T09:31:26.728Z,25.24
2022-08-11T09:33:55.168Z,25.22
2022-08-11T09:36:40.843Z,25.32
2022-08-11T09:39:26.878Z,25.60
2022-08-11T09:42:01.879Z,25.52
2022-08-11T09:44:51.117Z,25.26
2022-08-11T09:47:22.003Z,25.29
2022-08-11T09:49:49.272Z,25.39
2022-08-11T09:52:15.994Z,25.76
2022-08-11T09:54:48.238Z,25.83
2022-08-11T09:57:37.126Z,25.70
2022-08-11T10:00:12.435Z,25.87
2022-08-11T10:02:47.095Z,26.18
2022-08-11T10:05:35.588Z,26.24
2022-08-11T10:08:03.640Z,26.35
2022-08-11T10:10:35.673Z,26.36
2022-08-11T10:14:32.181Z,25.80
2022-08-11T10:16:15.100Z,26.04
2022-08-11T10:18:52.199Z,26.00
2022-08-11T10:22:05.058Z,25.87
2022-08-11T10:24:50.756Z,25.79
2022-08-11T10:27:17.809Z,25.75
2022-08-11T10:30:03.096Z,25.61
2022-08-11T10:32:58.395Z,25.69
2022-08-11T10:35:27.999Z,26.05
2022-08-11T10:38:06.794Z,26.25
2022-08-11T10:40:46.012Z,26.22
2022-08-11T10:43:53.339Z,26.29
2022-08-11T10:46:29.628Z,26.29
2022-08-11T10:48:59.012Z,26.14
2022-08-11T10:51:51.190Z,26.21
2022-08-11T10:54:36.905Z,26.41
2022-08-11T10:57:23.007Z,26.49
2022-08-11T10:59:49.862Z,26.50
2022-08-11T11:02:18.807Z,26.69
2022-08-11T11:04:59.331Z,26.27
2022-08-11T11:07:56.074Z,26.46
2022-08-11T11:10:22.684Z,26.54
2022-08-11T11:13:18.801Z,26.76
2022-08-11T11:16:06.325Z,26.80
2022-08-11T11:18:36.546Z,26.57
2022-08-11T11:21:07.547Z,26.71
2022-08-11T11:23:41.344Z,26.74
2022-08-11T11:26:41.636Z,26.49
2022-08-11T11:29:38.366Z,26.79
2022-08-11T11:32:43.503Z,26.72
2022-08-11T11:35:27.597Z,27.05
2022-08-11T11:38:04.067Z,27.00
2022-08-11T11:40:32.626Z,27.09
2022-08-11T11:43:00.347Z,27.05
2022-08-11T11:45:27.180Z,27.24
2022-08-11T11:47:55.872Z,27.15
2022-08-11T11:50:31.608Z,27.23
2022-08-11T11:53:01.453Z,27.17
2022-08-11T11:55:29.421Z,27.13
2022-08-11T11:58:16.094Z,27.29
2022-08-11T12:01:05.091Z,27.45
2022-08-11T12:03:33.336Z,27.36
2022-08-11T12:06:00.450Z,27.41
2022-08-11T12:08:27.982Z,27.40
2022-08-11T12:11:24.308Z,27.45
2022-08-11T12:13:53.582Z,27.48
2022-08-11T12:16:34.806Z,27.59
2022-08-11T12:19:18.272Z,27.50
2022-08-11T12:22:04.826Z,27.56
2022-08-11T12:24:52.493Z,27.69
2022-08-11T12:27:24.110Z,27.68
2022-08-11T12:30:05.761Z,27.56
2022-08-11T12:32:35.066Z,27.75
2022-08-11T12:35:01.945Z,27.78
2022-08-11T12:37:35.081Z,27.60
2022-08-11T12:40:42.225Z,27.52
2022-08-11T12:43:38.896Z,27.22
2022-08-11T12:46:35.468Z,27.60
2022-08-11T12:49:30.533Z,27.60
2022-08-11T12:52:13.573Z,27.46
2022-08-11T12:55:03.141Z,27.60
2022-08-11T12:58:01.069Z,27.58
2022-08-11T13:00:48.845Z,27.39
2022-08-11T13:03:36.992Z,27.68
2022-08-11T13:06:04.871Z,27.70
2022-08-11T13:08:37.748Z,27.83
2022-08-11T13:11:23.811Z,27.82
2022-08-11T13:13:57.451Z,27.52
2022-08-11T13:16:57.689Z,27.71
2022-08-11T13:19:24.912Z,27.61
2022-08-11T13:21:53.295Z,27.85
2022-08-11T13:24:21.521Z,28.02
2022-08-11T13:26:50.483Z,27.76
2022-08-11T13:29:23.330Z,27.68
2022-08-11T13:31:51.280Z,27.84
2022-08-11T13:34:20.084Z,28.14
2022-08-11T13:36:50.221Z,28.33
2022-08-11T13:39:17.616Z,28.49
2022-08-11T13:41:45.627Z,28.22
2022-08-11T13:44:21.565Z,28.27
2022-08-11T13:46:52.971Z,28.39
2022-08-11T13:49:21.645Z,28.47
2022-08-11T13:51:49.181Z,28.08
2022-08-11T13:54:22.808Z,28.10
2022-08-11T13:56:53.448Z,28.10
2022-08-11T13:59:23.057Z,28.16
2022-08-11T14:02:19.639Z,28.09
2022-08-11T14:04:58.931Z,28.09
2022-08-11T14:07:41.971Z,28.17
2022-08-11T14:10:11.956Z,28.18
2022-08-11T14:13:01.570Z,28.36
2022-08-11T14:15:33.123Z,27.92
2022-08-11T14:18:18.334Z,27.82
2022-08-11T14:21:11.089Z,28.04
2022-08-11T14:23:48.617Z,28.16
2022-08-11T14:26:29.538Z,27.90
2022-08-11T14:29:14.678Z,27.93
2022-08-11T14:31:50.466Z,27.98
2022-08-11T14:34:21.811Z,28.00
2022-08-11T14:36:52.243Z,28.08
2022-08-11T14:39:22.334Z,28.08
2022-08-11T14:42:13.263Z,28.10
2022-08-11T14:45:07.641Z,27.97
2022-08-11T14:47:38.060Z,27.96
2022-08-11T14:50:11.669Z,28.07
2022-08-11T14:52:43.234Z,28.14
2022-08-11T14:55:30.605Z,27.92
2022-08-11T14:57:57.971Z,28.15
2022-08-11T15:00:25.414Z,28.22
2022-08-11T15:03:12.449Z,28.16
2022-08-11T15:05:56.582Z,28.05
2022-08-11T15:08:45.544Z,28.13
2022-08-11T15:11:32.429Z,27.92
2022-08-11T15:14:01.150Z,28.06
2022-08-11T15:16:47.852Z,27.78
2022-08-11T15:19:15.727Z,27.49
2022-08-11T15:22:00.639Z,27.60
2022-08-11T15:24:27.399Z,27.85
2022-08-11T15:27:19.238Z,27.72
2022-08-11T15:30:06.817Z,27.43
2022-08-11T15:32:53.844Z,27.45
2022-08-11T15:35:39.863Z,27.14
2022-08-11T15:38:11.613Z,26.91
2022-08-11T15:40:59.881Z,26.88
2022-08-11T15:43:49.722Z,26.94
2022-08-11T15:46:20.497Z,27.00
2022-08-11T15:48:56.020Z,27.01
2022-08-11T15:51:39.469Z,26.98
2022-08-11T15:54:11.227Z,26.77
2022-08-11T15:56:41.621Z,26.77
2022-08-11T15:59:41.535Z,26.68
2022-08-11T16:02:32.108Z,26.64
2022-08-11T16:05:01.905Z,26.59
2022-08-11T16:07:32.548Z,26.47
2022-08-11T16:10:10.608Z,26.48
2022-08-11T16:13:03.522Z,26.42
2022-08-11T16:15:51.075Z,26.40
2022-08-11T16:18:20.970Z,26.35
2022-08-11T16:20:51.761Z,26.26
2022-08-11T16:23:19.517Z,25.97
2022-08-11T16:27:05.521Z,25.92
2022-08-11T16:28:36.224Z,26.02
2022-08-11T16:31:03.298Z,26.07
2022-08-11T16:33:49.985Z,25.97
2022-08-11T16:36:37.949Z,25.78
2022-08-11T16:39:06.411Z,25.72
2022-08-11T16:41:53.822Z,25.74
2022-08-11T16:44:41.313Z,25.86
2022-08-11T16:47:11.939Z,25.59
2022-08-11T16:49:52.155Z,25.51
2022-08-11T16:52:20.778Z,25.52
2022-08-11T16:54:47.574Z,25.38
2022-08-11T16:57:45.744Z,25.27
2022-08-11T17:00:15.235Z,25.28
2022-08-11T17:03:05.796Z,25.34
2022-08-11T17:05:54.750Z,25.30
2022-08-11T17:08:56.658Z,25.31
2022-08-11T17:11:45.868Z,25.35
2022-08-11T17:14:16.345Z,25.71
2022-08-11T17:16:45.321Z,26.24
2022-08-11T17:19:17.764Z,26.08
2022-08-11T17:22:07.719Z,25.82
2022-08-11T17:24:37.920Z,25.50
2022-08-11T17:27:07.406Z,25.33
2022-08-11T17:29:53.865Z,25.15
2022-08-11T17:32:55.899Z,24.95
2022-08-11T17:35:31.011Z,24.95
2022-08-11T17:38:01.591Z,25.02
2022-08-11T17:40:29.089Z,24.96
2022-08-11T17:43:16.730Z,24.87
2022-08-11T17:46:04.378Z,24.75
2022-08-11T17:48:47.832Z,24.74
2022-08-11T17:51:38.830Z,24.59
2022-08-11T17:54:26.014Z,24.53
2022-08-11T17:57:21.212Z,24.48
2022-08-11T17:59:52.639Z,24.46
2022-08-11T18:02:42.333Z,24.38
2022-08-11T18:05:13.447Z,24.18
2022-08-11T18:08:01.647Z,24.06
2022-08-11T18:10:49.191Z,24.02
2022-08-11T18:13:37.401Z,24.00
2022-08-11T18:16:22.635Z,23.84
2022-08-11T18:19:07.368Z,23.78
2022-08-11T18:22:02.335Z,23.58
2022-08-11T18:25:20.774Z,23.55
2022-08-11T18:28:11.076Z,23.47
2022-08-11T18:31:04.024Z,23.25
2022-08-11T18:34:07.164Z,23.15
2022-08-11T18:37:00.221Z,23.08
2022-08-11T18:39:56.170Z,22.83
2022-08-11T18:42:42.730Z,22.71
2022-08-11T18:45:31.074Z,22.58
2022-08-11T18:48:34.203Z,22.43
2022-08-11T18:51:30.584Z,22.42
2022-08-11T18:54:28.939Z,22.23
2022-08-11T18:57:19.293Z,22.11
2022-08-11T19:00:07.351Z,22.13
2022-08-11T19:02:55.763Z,21.98
2022-08-11T19:06:32.026Z,21.76
2022-08-11T19:08:53.836Z,21.77
2022-08-11T19:11:42.775Z,21.71
2022-08-11T19:14:30.959Z,21.68
2022-08-11T19:17:44.491Z,21.54
2022-08-11T19:20:26.971Z,21.39
2022-08-11T19:23:13.880Z,21.20
2022-08-11T19:26:01.720Z,21.00
2022-08-11T19:28:47.978Z,20.85
2022-08-11T19:31:33.598Z,20.85
2022-08-11T19:34:19.593Z,20.75
2022-08-11T19:37:06.214Z,20.62
2022-08-11T19:39:52.038Z,20.64
2022-08-11T19:42:38.029Z,20.49
2022-08-11T19:45:24.654Z,20.37
2022-08-11T19:51:16.425Z,20.14
2022-08-11T19:54:03.385Z,20.04
2022-08-11T19:56:49.544Z,19.96
2022-08-11T19:59:37.680Z,19.94
2022-08-11T20:02:24.474Z,19.82
2022-08-11T20:05:10.144Z,19.88
2022-08-11T20:07:55.867Z,19.74
2022-08-11T20:10:41.903Z,19.67
2022-08-11T20:13:29.649Z,19.57
2022-08-11T20:16:16.051Z,19.34
2022-08-11T20:19:02.763Z,19.23
2022-08-11T20:21:48.899Z,19.47
2022-08-11T20:24:36.181Z,19.48
2022-08-11T20:27:25.394Z,19.38
2022-08-11T20:30:12.641Z,19.26
2022-08-11T20:33:00.680Z,19.03
2022-08-11T20:35:46.772Z,18.95
2022-08-11T20:38:34.476Z,18.95
2022-08-11T20:41:21.767Z,18.95
2022-08-11T20:44:09.676Z,18.88
2022-08-11T20:46:57.617Z,18.92
2022-08-11T20:49:53.588Z,18.82
2022-08-11T20:55:53.884Z,18.62
2022-08-11T21:01:46.986Z,18.65
2022-08-11T21:04:37.134Z,18.61
2022-08-11T21:07:41.381Z,18.49
2022-08-11T21:10:30.126Z,18.41
2022-08-11T21:13:25.618Z,18.26
2022-08-11T21:16:25.251Z,18.24
2022-08-11T21:19:15.920Z,18.24
2022-08-11T21:22:03.421Z,18.17
2022-08-11T21:24:51.933Z,18.11
2022-08-11T21:27:40.156Z,18.07
2022-08-11T21:30:26.121Z,18.10
2022-08-11T21:33:12.866Z,18.06
2022-08-11T21:35:58.715Z,17.91
2022-08-11T21:38:44.175Z,17.85
2022-08-11T21:41:31.005Z,17.86
2022-08-11T21:44:17.328Z,17.84
2022-08-11T21:47:02.976Z,17.90
2022-08-11T21:49:49.782Z,17.71
2022-08-11T21:52:35.016Z,17.77
2022-08-11T21:55:21.472Z,17.77
2022-08-11T21:58:07.784Z,17.83
2022-08-11T22:00:53.283Z,17.56
2022-08-11T22:03:50.009Z,17.47
2022-08-11T22:06:36.477Z,17.61
2022-08-11T22:09:22.460Z,17.50
2022-08-11T22:12:34.017Z,17.57
2022-08-11T22:15:13.856Z,17.40
2022-08-11T22:17:58.691Z,17.44
2022-08-11T22:20:46.212Z,17.59
2022-08-11T22:23:36.945Z,17.62
2022-08-11T22:26:22.744Z,17.57
2022-08-11T22:29:08.007Z,17.58
2022-08-11T22:31:55.179Z,17.46
2022-08-11T22:34:52.994Z,17.32
2022-08-11T22:37:40.564Z,17.25
2022-08-11T22:40:28.353Z,17.20
2022-08-11T22:43:13.658Z,17.02
2022-08-11T22:45:58.938Z,17.08
2022-08-11T22:48:47.973Z,16.88
2022-08-11T22:51:34.340Z,16.73
2022-08-11T22:54:21.762Z,16.62
2022-08-11T22:57:08.348Z,16.49
2022-08-11T22:59:55.897Z,16.27
2022-08-11T23:02:41.507Z,16.39
2022-08-11T23:05:28.358Z,16.26
2022-08-11T23:08:15.311Z,16.24
2022-08-11T23:11:01.269Z,16.29
2022-08-11T23:13:49.027Z,16.14
2022-08-11T23:16:35.418Z,16.03
2022-08-11T23:20:07.722Z,16.03
2022-08-11T23:22:39.445Z,16.01
2022-08-11T23:25:32.653Z,16.01
2022-08-11T23:28:42.708Z,16.05
2022-08-11T23:31:30.004Z,15.85
2022-08-11T23:35:04.021Z,15.80
2022-08-11T23:37:47.853Z,15.81
2022-08-11T23:40:32.703Z,15.93
2022-08-11T23:43:18.928Z,15.99
2022-08-11T23:46:04.314Z,15.91
2022-08-11T23:48:50.458Z,15.98
2022-08-11T23:51:41.248Z,15.94
2022-08-11T23:54:27.718Z,15.99
2022-08-11T23:57:13.514Z,15.92
2022-08-11T23:59:58.586Z,15.92
